createdAt,value
2022-09-02T00:00:26.194Z,15.40
2022-09-02T00:01:26.125Z,15.40
2022-09-02T00:02:26.197Z,15.40
2022-09-02T00:03:26.386Z,15.41
2022-09-02T00:04:26.104Z,15.40
2022-09-02T00:05:26.023Z,15.40
2022-09-02T00:06:26.014Z,15.41
2022-09-02T00:07:26.113Z,15.40
2022-09-02T00:08:26.045Z,15.43
2022-09-02T00:09:25.985Z,15.43
2022-09-02T00:10:26.020Z,15.43
2022-09-02T00:11:25.965Z,15.40
2022-09-02T00:12:25.959Z,15.41
2022-09-02T00:13:25.957Z,15.40
2022-09-02T00:14:25.937Z,15.40
2022-09-02T00:15:25.930Z,15.41
2022-09-02T00:16:25.945Z,15.38
2022-09-02T00:17:25.901Z,15.38
2022-09-02T00:18:26.113Z,15.37
2022-09-02T00:19:25.872Z,15.37
2022-09-02T00:20:25.902Z,15.38
2022-09-02T00:21:25.853Z,15.38
2022-09-02T00:22:25.832Z,15.37
2022-09-02T00:23:27.412Z,15.37
2022-09-02T00:24:25.963Z,15.38
2022-09-02T00:25:25.781Z,15.37
2022-09-02T00:26:25.780Z,15.38
2022-09-02T00:27:25.797Z,15.38
2022-09-02T00:28:25.735Z,15.37
2022-09-02T00:29:25.868Z,15.37
2022-09-02T00:30:25.709Z,15.38
2022-09-02T00:31:25.856Z,15.38
2022-09-02T00:32:25.680Z,15.37
2022-09-02T00:33:25.684Z,15.35
2022-09-02T00:34:25.719Z,15.35
2022-09-02T00:35:25.664Z,15.35
2022-09-02T00:36:25.660Z,15.34
2022-09-02T00:37:25.645Z,15.34
2022-09-02T00:38:25.629Z,15.33
2022-09-02T00:39:25.680Z,15.33
2022-09-02T00:40:25.619Z,15.31
2022-09-02T00:41:25.674Z,15.30
2022-09-02T00:42:25.547Z,15.27
2022-09-02T00:43:25.535Z,15.30
2022-09-02T00:44:25.526Z,15.31
2022-09-02T00:45:25.553Z,15.26
2022-09-02T00:46:25.500Z,15.25
2022-09-02T00:47:25.514Z,15.26
2022-09-02T00:48:25.485Z,15.26
2022-09-02T00:49:25.513Z,15.26
2022-09-02T00:50:25.493Z,15.26
2022-09-02T00:51:25.592Z,15.25
2022-09-02T00:52:25.459Z,15.26
2022-09-02T00:53:25.414Z,15.25
2022-09-02T00:54:25.424Z,15.23
2022-09-02T00:55:25.383Z,15.22
2022-09-02T00:56:25.569Z,15.20
2022-09-02T00:57:25.363Z,15.22
2022-09-02T00:58:25.361Z,15.19
2022-09-02T00:59:25.358Z,15.19
2022-09-02T01:00:25.320Z,15.19
2022-09-02T01:01:26.459Z,15.19
2022-09-02T01:02:25.462Z,15.18
2022-09-02T01:06:02.233Z,15.16
2022-09-02T01:06:41.213Z,15.16
2022-09-02T01:07:41.211Z,15.16
2022-09-02T01:08:41.180Z,15.13
2022-09-02T01:09:41.182Z,15.15
2022-09-02T01:10:41.148Z,15.13
2022-09-02T01:11:41.124Z,15.12
2022-09-02T01:12:41.197Z,15.12
2022-09-02T01:13:41.140Z,15.12
2022-09-02T01:14:41.291Z,15.10
2022-09-02T01:15:41.106Z,15.12
2022-09-02T01:16:42.191Z,15.10
2022-09-02T01:17:41.098Z,15.10
2022-09-02T01:18:41.045Z,15.08
2022-09-02T01:19:41.025Z,15.08
2022-09-02T01:20:41.030Z,15.08
2022-09-02T01:21:41.000Z,15.05
2022-09-02T01:22:41.030Z,15.05
2022-09-02T01:23:40.974Z,15.05
2022-09-02T01:24:41.007Z,15.04
2022-09-02T01:25:40.966Z,15.02
2022-09-02T01:26:40.931Z,15.00
2022-09-02T01:27:40.938Z,15.00
2022-09-02T01:28:40.918Z,14.97
2022-09-02T01:29:41.018Z,14.95
2022-09-02T01:30:40.939Z,14.97
2022-09-02T01:31:40.936Z,14.94
2022-09-02T01:32:40.900Z,14.94
2022-09-02T01:33:40.863Z,14.93
2022-09-02T01:34:40.866Z,14.93
2022-09-02T01:35:40.845Z,14.94
2022-09-02T01:36:40.820Z,14.93
2022-09-02T01:37:40.797Z,14.90
2022-09-02T01:38:41.976Z,14.90
2022-09-02T01:39:40.802Z,14.89
2022-09-02T01:40:40.784Z,14.89
2022-09-02T01:41:40.754Z,14.87
2022-09-02T01:42:40.789Z,14.90
2022-09-02T01:43:40.726Z,14.89
2022-09-02T01:44:40.786Z,14.89
2022-09-02T01:45:40.714Z,14.89
2022-09-02T01:46:40.760Z,14.89
2022-09-02T01:47:40.685Z,14.89
2022-09-02T01:48:40.663Z,14.89
2022-09-02T01:49:40.664Z,14.87
2022-09-02T01:50:45.064Z,14.86
2022-09-02T01:51:41.772Z,14.86
2022-09-02T01:52:40.584Z,14.86
2022-09-02T01:53:40.604Z,14.86
2022-09-02T01:54:40.614Z,14.87
2022-09-02T01:55:40.594Z,14.86
2022-09-02T01:56:40.554Z,14.85
2022-09-02T01:57:40.581Z,14.82
2022-09-02T01:58:40.511Z,14.83
2022-09-02T01:59:40.521Z,14.80
2022-09-02T02:00:40.535Z,14.79
2022-09-02T02:01:40.523Z,14.77
2022-09-02T02:02:40.481Z,14.75
2022-09-02T02:03:40.465Z,14.75
2022-09-02T02:04:40.485Z,14.71
2022-09-02T02:05:40.440Z,14.70
2022-09-02T02:06:40.491Z,14.69
2022-09-02T02:07:40.412Z,14.69
2022-09-02T02:08:40.399Z,14.67
2022-09-02T02:09:40.406Z,14.67
2022-09-02T02:10:40.397Z,14.66
2022-09-02T02:11:40.409Z,14.66
2022-09-02T02:12:40.349Z,14.61
2022-09-02T02:13:40.318Z,14.61
2022-09-02T02:14:40.329Z,14.60
2022-09-02T02:15:40.339Z,14.60
2022-09-02T02:16:40.386Z,14.57
2022-09-02T02:17:40.335Z,14.57
2022-09-02T02:18:40.255Z,14.57
2022-09-02T02:19:40.437Z,14.56
2022-09-02T02:20:40.236Z,14.53
2022-09-02T02:21:40.216Z,14.56
2022-09-02T02:22:40.241Z,14.53
2022-09-02T02:23:40.244Z,14.56
2022-09-02T02:24:40.232Z,14.56
2022-09-02T02:25:40.228Z,14.53
2022-09-02T02:26:40.255Z,14.53
2022-09-02T02:27:40.185Z,14.52
2022-09-02T02:28:40.345Z,14.51
2022-09-02T02:29:40.134Z,14.51
2022-09-02T02:30:40.185Z,14.48
2022-09-02T02:31:40.264Z,14.48
2022-09-02T02:32:40.167Z,14.49
2022-09-02T02:33:40.113Z,14.49
2022-09-02T02:34:40.064Z,14.49
2022-09-02T02:35:40.066Z,14.48
2022-09-02T02:36:40.036Z,14.44
2022-09-02T02:37:40.072Z,14.45
2022-09-02T02:38:40.070Z,14.48
2022-09-02T02:39:39.980Z,14.46
2022-09-02T02:40:40.048Z,14.46
2022-09-02T02:41:40.036Z,14.46
2022-09-02T02:42:39.952Z,14.45
2022-09-02T02:43:39.971Z,14.45
2022-09-02T02:44:39.922Z,14.44
2022-09-02T02:45:39.911Z,14.42
2022-09-02T02:46:40.009Z,14.42
2022-09-02T02:47:40.000Z,14.41
2022-09-02T02:48:39.885Z,14.39
2022-09-02T02:49:39.887Z,14.39
2022-09-02T02:50:39.860Z,14.41
2022-09-02T02:51:39.829Z,14.39
2022-09-02T02:52:39.893Z,14.38
2022-09-02T02:53:39.804Z,14.39
2022-09-02T02:54:39.863Z,14.34
2022-09-02T02:55:39.788Z,14.34
2022-09-02T02:56:39.821Z,14.31
2022-09-02T02:57:39.837Z,14.31
2022-09-02T02:58:39.767Z,14.30
2022-09-02T02:59:39.820Z,14.30
2022-09-02T03:00:39.736Z,14.28
2022-09-02T03:01:39.782Z,14.27
2022-09-02T03:02:39.933Z,14.26
2022-09-02T03:03:39.668Z,14.26
2022-09-02T03:04:39.698Z,14.23
2022-09-02T03:05:39.707Z,14.23
2022-09-02T03:06:39.646Z,14.21
2022-09-02T03:07:39.666Z,14.21
2022-09-02T03:08:39.625Z,14.20
2022-09-02T03:09:39.629Z,14.20
2022-09-02T03:10:39.671Z,14.20
2022-09-02T03:11:39.571Z,14.16
2022-09-02T03:12:39.553Z,14.15
2022-09-02T03:13:39.554Z,14.15
2022-09-02T03:14:39.556Z,14.13
2022-09-02T03:15:39.646Z,14.13
2022-09-02T03:16:39.522Z,14.11
2022-09-02T03:17:39.532Z,14.11
2022-09-02T03:18:39.532Z,14.09
2022-09-02T03:19:39.496Z,14.08
2022-09-02T03:20:39.462Z,14.08
2022-09-02T03:21:39.484Z,14.08
2022-09-02T03:22:39.422Z,14.06
2022-09-02T03:23:39.421Z,14.03
2022-09-02T03:24:39.420Z,14.03
2022-09-02T03:25:39.471Z,14.02
2022-09-02T03:26:39.381Z,14.02
2022-09-02T03:27:39.410Z,13.99
2022-09-02T03:28:39.367Z,13.99
2022-09-02T03:29:39.350Z,13.99
2022-09-02T03:30:39.331Z,13.95
2022-09-02T03:31:39.427Z,13.95
2022-09-02T03:32:39.308Z,13.95
2022-09-02T03:33:39.347Z,13.94
2022-09-02T03:34:39.289Z,13.93
2022-09-02T03:35:39.269Z,13.94
2022-09-02T03:36:39.255Z,13.93
2022-09-02T03:37:39.248Z,13.88
2022-09-02T03:38:39.228Z,13.88
2022-09-02T03:39:39.275Z,13.88
2022-09-02T03:40:39.466Z,13.88
2022-09-02T03:41:39.191Z,13.88
2022-09-02T03:42:39.275Z,13.87
2022-09-02T03:43:39.155Z,13.87
2022-09-02T03:44:39.178Z,13.84
2022-09-02T03:45:39.442Z,13.86
2022-09-02T03:46:39.284Z,13.84
2022-09-02T03:47:39.113Z,13.84
2022-09-02T03:48:39.120Z,13.83
2022-09-02T03:49:39.096Z,13.83
2022-09-02T03:50:39.084Z,13.83
2022-09-02T03:51:39.066Z,13.76
2022-09-02T03:52:39.041Z,13.79
2022-09-02T03:53:39.057Z,13.78
2022-09-02T03:54:39.063Z,13.76
2022-09-02T03:55:39.235Z,13.76
2022-09-02T03:56:38.996Z,13.75
2022-09-02T03:57:38.978Z,13.75
2022-09-02T03:58:39.039Z,13.72
2022-09-02T03:59:38.956Z,13.72
2022-09-02T04:00:39.008Z,13.69
2022-09-02T04:01:38.994Z,13.70
2022-09-02T04:02:39.095Z,13.70
2022-09-02T04:03:38.903Z,13.69
2022-09-02T04:04:38.946Z,13.68
2022-09-02T04:05:39.768Z,13.69
2022-09-02T04:06:38.872Z,13.66
2022-09-02T04:07:38.857Z,13.66
2022-09-02T04:08:38.901Z,13.66
2022-09-02T04:09:40.002Z,13.66
2022-09-02T04:10:38.881Z,13.65
2022-09-02T04:11:38.939Z,13.66
2022-09-02T04:12:38.793Z,13.63
2022-09-02T04:13:38.831Z,13.62
2022-09-02T04:14:38.799Z,13.62
2022-09-02T04:15:38.853Z,13.62
2022-09-02T04:16:38.750Z,13.62
2022-09-02T04:17:38.716Z,13.62
2022-09-02T04:18:38.710Z,13.60
2022-09-02T04:19:38.746Z,13.60
2022-09-02T04:20:38.703Z,13.58
2022-09-02T04:21:38.718Z,13.57
2022-09-02T04:22:38.705Z,13.58
2022-09-02T04:23:38.638Z,13.58
2022-09-02T04:24:38.638Z,13.55
2022-09-02T04:25:38.627Z,13.57
2022-09-02T04:26:44.899Z,13.57
2022-09-02T04:27:39.587Z,13.55
2022-09-02T04:28:38.598Z,13.55
2022-09-02T04:29:38.567Z,13.55
2022-09-02T04:30:38.596Z,13.54
2022-09-02T04:31:38.640Z,13.54
2022-09-02T04:32:40.865Z,13.53
2022-09-02T04:33:38.524Z,13.53
2022-09-02T04:34:38.495Z,13.53
2022-09-02T04:35:38.486Z,13.53
2022-09-02T04:36:38.483Z,13.51
2022-09-02T04:37:38.475Z,13.50
2022-09-02T04:38:38.462Z,13.50
2022-09-02T04:39:38.477Z,13.48
2022-09-02T04:40:39.250Z,13.47
2022-09-02T04:41:38.416Z,13.47
2022-09-02T04:42:38.478Z,13.45
2022-09-02T04:43:38.393Z,13.45
2022-09-02T04:44:38.384Z,13.45
2022-09-02T04:45:38.372Z,13.45
2022-09-02T04:46:38.450Z,13.42
2022-09-02T04:47:38.337Z,13.42
2022-09-02T04:48:38.390Z,13.42
2022-09-02T04:49:38.301Z,13.42
2022-09-02T04:50:38.559Z,13.44
2022-09-02T04:51:38.270Z,13.42
2022-09-02T04:52:38.316Z,13.42
2022-09-02T04:53:38.260Z,13.42
2022-09-02T04:54:38.294Z,13.42
2022-09-02T04:55:38.230Z,13.42
2022-09-02T04:56:38.327Z,13.40
2022-09-02T04:57:38.214Z,13.44
2022-09-02T04:58:38.219Z,13.42
2022-09-02T04:59:38.226Z,13.42
2022-09-02T05:00:38.311Z,13.42
2022-09-02T05:01:38.283Z,13.44
2022-09-02T05:02:38.239Z,13.44
2022-09-02T05:03:38.167Z,13.44
2022-09-02T05:04:38.130Z,13.44
2022-09-02T05:05:38.160Z,13.44
2022-09-02T05:06:41.995Z,13.47
2022-09-02T05:07:39.087Z,13.47
2022-09-02T05:08:38.138Z,13.47
2022-09-02T05:09:38.055Z,13.47
2022-09-02T05:10:38.083Z,13.47
2022-09-02T05:11:38.060Z,13.47
2022-09-02T05:12:38.005Z,13.48
2022-09-02T05:13:38.026Z,13.47
2022-09-02T05:14:37.991Z,13.48
2022-09-02T05:15:38.016Z,13.48
2022-09-02T05:16:37.964Z,13.50
2022-09-02T05:17:37.964Z,13.48
2022-09-02T05:18:38.011Z,13.48
2022-09-02T05:19:37.942Z,13.50
2022-09-02T05:20:37.935Z,13.51
2022-09-02T05:21:37.913Z,13.50
2022-09-02T05:22:37.892Z,13.50
2022-09-02T05:23:37.896Z,13.51
2022-09-02T05:24:37.853Z,13.51
2022-09-02T05:25:37.844Z,13.51
2022-09-02T05:26:37.924Z,13.51
2022-09-02T05:27:37.814Z,13.53
2022-09-02T05:28:37.862Z,13.51
2022-09-02T05:29:37.802Z,13.53
2022-09-02T05:30:37.804Z,13.54
2022-09-02T05:31:37.783Z,13.54
2022-09-02T05:32:38.220Z,13.55
2022-09-02T05:33:37.843Z,13.55
2022-09-02T05:34:37.757Z,13.57
2022-09-02T05:35:37.739Z,13.57
2022-09-02T05:36:38.716Z,13.57
2022-09-02T05:37:37.740Z,13.58
2022-09-02T05:38:37.689Z,13.60
2022-09-02T05:39:37.677Z,13.62
2022-09-02T05:40:37.707Z,13.62
2022-09-02T05:41:37.677Z,13.63
2022-09-02T05:42:37.627Z,13.63
2022-09-02T05:43:37.679Z,13.65
2022-09-02T05:44:37.595Z,13.66
2022-09-02T05:45:37.681Z,13.66
2022-09-02T05:46:37.697Z,13.68
2022-09-02T05:47:37.563Z,13.70
2022-09-02T05:48:37.699Z,13.70
2022-09-02T05:49:37.535Z,13.72
2022-09-02T05:50:37.536Z,13.75
2022-09-02T05:51:37.515Z,13.75
2022-09-02T05:52:37.495Z,13.78
2022-09-02T05:53:37.543Z,13.79
2022-09-02T05:54:37.516Z,13.81
2022-09-02T05:55:37.494Z,13.83
2022-09-02T05:56:37.493Z,13.84
2022-09-02T05:57:37.424Z,13.87
2022-09-02T05:58:37.433Z,13.87
2022-09-02T05:59:37.398Z,13.90
2022-09-02T06:00:37.449Z,13.91
2022-09-02T06:01:37.447Z,13.93
2022-09-02T06:02:37.452Z,13.95
2022-09-02T06:03:37.363Z,13.99
2022-09-02T06:04:37.344Z,13.99
2022-09-02T06:05:37.342Z,14.02
2022-09-02T06:06:37.323Z,14.05
2022-09-02T06:07:37.293Z,14.06
2022-09-02T06:08:37.281Z,14.11
2022-09-02T06:09:37.333Z,14.12
2022-09-02T06:10:37.262Z,14.15
2022-09-02T06:11:37.266Z,14.19
2022-09-02T06:12:41.908Z,14.20
2022-09-02T06:13:38.317Z,14.20
2022-09-02T06:14:37.363Z,14.23
2022-09-02T06:15:37.237Z,14.24
2022-09-02T06:16:37.259Z,14.27
2022-09-02T06:17:37.186Z,14.30
2022-09-02T06:18:37.160Z,14.33
2022-09-02T06:19:37.167Z,14.36
2022-09-02T06:20:37.178Z,14.38
2022-09-02T06:21:37.155Z,14.42
2022-09-02T06:22:37.125Z,14.44
2022-09-02T06:23:37.125Z,14.44
2022-09-02T06:24:37.133Z,14.46
2022-09-02T06:25:37.076Z,14.49
2022-09-02T06:26:37.124Z,14.51
2022-09-02T06:27:37.035Z,14.53
2022-09-02T06:28:37.036Z,14.59
2022-09-02T06:29:37.026Z,14.61
2022-09-02T06:30:37.023Z,14.61
2022-09-02T06:31:37.019Z,14.64
2022-09-02T06:32:36.996Z,14.67
2022-09-02T06:33:36.975Z,14.70
2022-09-02T06:34:37.036Z,14.74
2022-09-02T06:35:36.936Z,14.75
2022-09-02T06:36:36.998Z,14.77
2022-09-02T06:37:36.916Z,14.79
2022-09-02T06:38:36.937Z,14.79
2022-09-02T06:39:37.036Z,14.82
2022-09-02T06:40:36.927Z,14.85
2022-09-02T06:41:36.940Z,14.87
2022-09-02T06:42:36.866Z,14.87
2022-09-02T06:43:41.353Z,14.90
2022-09-02T06:44:37.845Z,14.90
2022-09-02T06:45:36.832Z,14.93
2022-09-02T06:46:36.918Z,14.93
2022-09-02T06:47:36.822Z,14.95
2022-09-02T06:48:36.789Z,14.98
2022-09-02T06:49:36.750Z,15.00
2022-09-02T06:50:36.771Z,15.01
2022-09-02T06:51:36.762Z,15.04
2022-09-02T06:52:36.773Z,15.04
2022-09-02T06:53:36.741Z,15.05
2022-09-02T06:54:36.708Z,15.08
2022-09-02T06:55:36.678Z,15.12
2022-09-02T06:56:36.734Z,15.12
2022-09-02T06:57:36.665Z,15.13
2022-09-02T06:58:36.715Z,15.18
2022-09-02T06:59:36.673Z,15.19
2022-09-02T07:00:36.738Z,15.20
2022-09-02T07:01:36.811Z,15.23
2022-09-02T07:02:36.602Z,15.26
2022-09-02T07:03:36.623Z,15.27
2022-09-02T07:04:36.599Z,15.31
2022-09-02T07:05:36.564Z,15.31
2022-09-02T07:06:36.592Z,15.35
2022-09-02T07:07:36.530Z,15.38
2022-09-02T07:08:36.556Z,15.41
2022-09-02T07:09:36.528Z,15.44
2022-09-02T07:10:36.507Z,15.47
2022-09-02T07:11:36.467Z,15.51
2022-09-02T07:12:36.469Z,15.52
2022-09-02T07:13:36.495Z,15.53
2022-09-02T07:14:36.446Z,15.56
2022-09-02T07:15:36.451Z,15.58
2022-09-02T07:16:36.579Z,15.60
2022-09-02T07:17:36.405Z,15.60
2022-09-02T07:18:37.033Z,15.63
2022-09-02T07:19:36.424Z,15.65
2022-09-02T07:20:36.379Z,15.68
2022-09-02T07:21:36.351Z,15.70
2022-09-02T07:22:36.349Z,15.73
2022-09-02T07:23:40.531Z,15.75
2022-09-02T07:24:36.336Z,15.77
2022-09-02T07:25:36.284Z,15.78
2022-09-02T07:26:36.403Z,15.78
2022-09-02T07:27:36.282Z,15.83
2022-09-02T07:28:36.332Z,15.84
2022-09-02T07:29:36.290Z,15.88
2022-09-02T07:30:36.299Z,15.89
2022-09-02T07:31:36.211Z,15.93
2022-09-02T07:32:36.238Z,15.98
2022-09-02T07:33:36.247Z,16.00
2022-09-02T07:34:36.247Z,16.04
2022-09-02T07:35:36.173Z,16.06
2022-09-02T07:36:36.144Z,16.08
2022-09-02T07:37:36.216Z,16.13
2022-09-02T07:38:36.185Z,16.16
2022-09-02T07:39:36.805Z,16.18
2022-09-02T07:40:36.201Z,16.21
2022-09-02T07:41:36.082Z,16.21
2022-09-02T07:42:36.161Z,16.22
2022-09-02T07:43:36.051Z,16.25
2022-09-02T07:44:36.121Z,16.26
2022-09-02T07:45:36.102Z,16.29
2022-09-02T07:46:36.019Z,16.32
2022-09-02T07:47:36.053Z,16.33
2022-09-02T07:48:36.008Z,16.36
2022-09-02T07:50:36.960Z,16.39
2022-09-02T07:51:35.996Z,16.42
2022-09-02T07:52:35.949Z,16.44
2022-09-02T07:53:35.959Z,16.45
2022-09-02T07:54:35.958Z,16.47
2022-09-02T07:55:35.930Z,16.47
2022-09-02T07:56:35.930Z,16.51
2022-09-02T07:57:35.877Z,16.51
2022-09-02T07:58:35.868Z,16.52
2022-09-02T07:59:35.859Z,16.55
2022-09-02T08:00:35.866Z,16.55
2022-09-02T08:01:35.928Z,16.58
2022-09-02T08:02:35.851Z,16.58
2022-09-02T08:03:35.815Z,16.59
2022-09-02T08:04:35.785Z,16.59
2022-09-02T08:05:35.806Z,16.62
2022-09-02T08:06:35.755Z,16.62
2022-09-02T08:07:35.743Z,16.65
2022-09-02T08:08:35.743Z,16.67
2022-09-02T08:09:35.758Z,16.69
2022-09-02T08:10:35.754Z,16.73
2022-09-02T08:11:35.714Z,16.74
2022-09-02T08:12:35.719Z,16.81
2022-09-02T08:13:35.665Z,16.84
2022-09-02T08:14:35.642Z,16.88
2022-09-02T08:15:35.743Z,16.90
2022-09-02T08:16:35.815Z,16.92
2022-09-02T08:17:35.660Z,16.95
2022-09-02T08:18:35.602Z,17.02
2022-09-02T08:19:35.629Z,17.06
2022-09-02T08:20:35.621Z,17.07
2022-09-02T08:21:35.601Z,17.10
2022-09-02T08:22:35.593Z,17.12
2022-09-02T08:23:37.652Z,17.17
2022-09-02T08:24:35.546Z,17.18
2022-09-02T08:25:35.512Z,17.21
2022-09-02T08:26:35.509Z,17.24
2022-09-02T08:27:35.510Z,17.24
2022-09-02T08:28:35.582Z,17.27
2022-09-02T08:29:35.513Z,17.28
2022-09-02T08:30:35.462Z,17.32
2022-09-02T08:31:35.548Z,17.32
2022-09-02T08:32:35.434Z,17.36
2022-09-02T08:33:35.439Z,17.36
2022-09-02T08:34:35.398Z,17.40
2022-09-02T08:35:35.380Z,17.43
2022-09-02T08:36:35.388Z,17.45
2022-09-02T08:37:35.369Z,17.47
2022-09-02T08:38:35.364Z,17.52
2022-09-02T08:39:35.353Z,17.57
2022-09-02T08:40:35.375Z,17.58
2022-09-02T08:41:35.319Z,17.60
2022-09-02T08:42:35.418Z,17.65
2022-09-02T08:43:35.297Z,17.69
2022-09-02T08:44:35.326Z,17.74
2022-09-02T08:45:35.307Z,17.80
2022-09-02T08:46:35.255Z,17.83
2022-09-02T08:47:35.247Z,17.87
2022-09-02T08:48:35.265Z,17.92
2022-09-02T08:49:35.326Z,17.95
2022-09-02T08:50:35.249Z,17.99
2022-09-02T08:51:37.202Z,18.03
2022-09-02T08:52:35.243Z,18.08
2022-09-02T08:53:35.193Z,18.10
2022-09-02T08:54:35.135Z,18.13
2022-09-02T08:55:35.161Z,18.14
2022-09-02T08:56:35.116Z,18.19
2022-09-02T08:57:35.155Z,18.21
2022-09-02T08:58:36.111Z,18.24
2022-09-02T08:59:35.164Z,18.27
2022-09-02T09:00:35.094Z,18.29
2022-09-02T09:01:35.116Z,18.32
2022-09-02T09:02:35.079Z,18.34
2022-09-02T09:03:35.024Z,18.39
2022-09-02T09:04:35.021Z,18.44
2022-09-02T09:05:34.993Z,18.49
2022-09-02T09:06:35.015Z,18.51
2022-09-02T09:08:35.025Z,18.57
2022-09-02T09:09:34.953Z,18.60
2022-09-02T09:10:34.922Z,18.68
2022-09-02T09:11:34.966Z,18.71
2022-09-02T09:12:34.900Z,18.74
2022-09-02T09:13:38.250Z,18.75
2022-09-02T09:14:35.921Z,18.76
2022-09-02T09:15:34.881Z,18.76
2022-09-02T09:16:34.944Z,18.81
2022-09-02T09:17:34.909Z,18.82
2022-09-02T09:18:34.853Z,18.87
2022-09-02T09:20:55.794Z,18.93
2022-09-02T09:21:54.708Z,18.97
2022-09-02T09:22:53.994Z,19.02
2022-09-02T09:23:53.986Z,19.05
2022-09-02T09:24:54.123Z,19.10
2022-09-02T09:25:54.594Z,19.16
2022-09-02T09:26:53.997Z,19.19
2022-09-02T09:27:53.964Z,19.27
2022-09-02T09:28:53.954Z,19.32
2022-09-02T09:29:53.939Z,19.37
2022-09-02T09:30:54.582Z,19.42
2022-09-02T09:31:54.232Z,19.50
2022-09-02T09:32:53.873Z,19.56
2022-09-02T09:33:53.853Z,19.63
2022-09-02T09:34:53.883Z,19.64
2022-09-02T09:35:54.093Z,19.65
2022-09-02T09:36:53.853Z,19.68
2022-09-02T09:37:53.802Z,19.70
2022-09-02T09:38:53.811Z,19.74
2022-09-02T09:39:53.821Z,19.74
2022-09-02T09:40:54.014Z,19.78
2022-09-02T09:41:53.751Z,19.82
2022-09-02T09:42:53.762Z,19.85
2022-09-02T09:43:53.729Z,19.89
2022-09-02T09:44:53.913Z,19.90
2022-09-02T09:45:53.833Z,19.92
2022-09-02T09:46:53.799Z,19.93
2022-09-02T09:47:58.454Z,19.98
2022-09-02T09:48:54.670Z,20.01
2022-09-02T09:49:53.719Z,20.04
2022-09-02T09:50:53.740Z,20.07
2022-09-02T09:51:53.630Z,20.10
2022-09-02T09:52:53.660Z,20.11
2022-09-02T09:53:53.606Z,20.16
2022-09-02T09:54:53.593Z,20.19
2022-09-02T09:55:53.589Z,20.22
2022-09-02T09:56:53.580Z,20.23
2022-09-02T09:57:53.604Z,20.26
2022-09-02T09:58:53.625Z,20.26
2022-09-02T09:59:53.559Z,20.25
2022-09-02T10:00:53.577Z,20.25
2022-09-02T10:01:53.649Z,20.27
2022-09-02T10:02:53.523Z,20.29
2022-09-02T10:03:53.508Z,20.29
2022-09-02T10:04:53.564Z,20.32
2022-09-02T10:05:53.454Z,20.32
2022-09-02T10:06:53.434Z,20.32
2022-09-02T10:07:53.435Z,20.38
2022-09-02T10:08:53.443Z,20.40
2022-09-02T10:09:53.417Z,20.46
2022-09-02T10:10:53.462Z,20.48
2022-09-02T10:11:53.453Z,20.51
2022-09-02T10:12:53.384Z,20.53
2022-09-02T10:13:53.392Z,20.57
2022-09-02T10:14:53.344Z,20.60
2022-09-02T10:15:53.361Z,20.64
2022-09-02T10:16:53.371Z,20.67
2022-09-02T10:17:53.289Z,20.68
2022-09-02T10:18:53.294Z,20.71
2022-09-02T10:19:53.317Z,20.67
2022-09-02T10:21:54.258Z,20.68
2022-09-02T10:22:59.353Z,20.71
2022-09-02T10:23:54.354Z,20.72
2022-09-02T10:24:53.202Z,20.75
2022-09-02T10:25:53.203Z,20.79
2022-09-02T10:26:53.252Z,20.78
2022-09-02T10:27:53.183Z,20.81
2022-09-02T10:28:53.168Z,20.81
2022-09-02T10:29:53.201Z,20.82
2022-09-02T10:30:53.178Z,20.82
2022-09-02T10:31:53.145Z,20.83
2022-09-02T10:32:53.171Z,20.85
2022-09-02T10:33:53.160Z,20.86
2022-09-02T10:34:53.092Z,20.88
2022-09-02T10:35:53.130Z,20.91
2022-09-02T10:36:53.061Z,20.91
2022-09-02T10:37:53.050Z,20.93
2022-09-02T10:38:53.021Z,20.96
2022-09-02T10:39:53.052Z,20.97
2022-09-02T10:40:53.078Z,20.98
2022-09-02T10:41:53.074Z,20.98
2022-09-02T10:42:52.990Z,21.03
2022-09-02T10:43:57.555Z,21.09
2022-09-02T10:44:56.939Z,21.12
2022-09-02T10:45:53.940Z,21.16
2022-09-02T10:46:52.961Z,21.19
2022-09-02T10:48:52.974Z,21.25
2022-09-02T10:49:52.933Z,21.28
2022-09-02T10:50:52.878Z,21.31
2022-09-02T10:51:53.190Z,21.34
2022-09-02T10:52:52.906Z,21.38
2022-09-02T10:53:52.858Z,21.43
2022-09-02T10:54:52.877Z,21.46
2022-09-02T10:55:52.982Z,21.49
2022-09-02T10:56:52.797Z,21.51
2022-09-02T10:57:52.817Z,21.52
2022-09-02T10:58:52.811Z,21.52
2022-09-02T10:59:52.823Z,21.53
2022-09-02T11:00:52.885Z,21.55
2022-09-02T11:01:52.776Z,21.52
2022-09-02T11:02:52.766Z,21.53
2022-09-02T11:03:52.761Z,21.56
2022-09-02T11:04:55.235Z,21.62
2022-09-02T11:05:52.706Z,21.66
2022-09-02T11:07:02.450Z,21.70
2022-09-02T11:07:53.666Z,21.70
2022-09-02T11:08:52.644Z,21.70
2022-09-02T11:09:52.648Z,21.74
2022-09-02T11:10:52.666Z,21.77
2022-09-02T11:11:53.406Z,21.82
2022-09-02T11:12:52.614Z,21.89
2022-09-02T11:13:52.602Z,21.89
2022-09-02T11:14:52.612Z,21.92
2022-09-02T11:15:52.679Z,21.92
2022-09-02T11:16:52.573Z,21.92
2022-09-02T11:17:52.586Z,21.93
2022-09-02T11:18:52.523Z,21.93
2022-09-02T11:19:52.542Z,21.93
2022-09-02T11:20:52.513Z,21.96
2022-09-02T11:21:52.628Z,21.97
2022-09-02T11:22:54.270Z,21.99
2022-09-02T11:23:52.461Z,22.04
2022-09-02T11:24:52.600Z,22.04
2022-09-02T11:25:52.502Z,22.11
2022-09-02T11:26:52.431Z,22.11
2022-09-02T11:27:52.455Z,22.11
2022-09-02T11:28:52.423Z,22.14
2022-09-02T11:29:52.450Z,22.14
2022-09-02T11:30:52.402Z,22.16
2022-09-02T11:31:52.406Z,22.20
2022-09-02T11:32:52.354Z,22.23
2022-09-02T11:33:52.397Z,22.20
2022-09-02T11:34:52.330Z,22.20
2022-09-02T11:35:52.398Z,22.20
2022-09-02T11:36:52.299Z,22.20
2022-09-02T11:37:53.397Z,22.20
2022-09-02T11:38:52.336Z,22.22
2022-09-02T11:39:56.502Z,22.24
2022-09-02T11:41:53.311Z,22.26
2022-09-02T11:42:52.318Z,22.27
2022-09-02T11:43:52.289Z,22.30
2022-09-02T11:44:53.057Z,22.33
2022-09-02T11:45:52.269Z,22.34
2022-09-02T11:46:52.243Z,22.38
2022-09-02T11:47:52.165Z,22.36
2022-09-02T11:48:52.269Z,22.38
2022-09-02T11:49:52.125Z,22.38
2022-09-02T11:50:52.133Z,22.39
2022-09-02T11:51:52.137Z,22.45
2022-09-02T11:52:52.098Z,22.48
2022-09-02T11:53:54.990Z,22.51
2022-09-02T11:54:52.084Z,22.54
2022-09-02T11:55:52.054Z,22.55
2022-09-02T11:56:52.057Z,22.60
2022-09-02T11:57:52.364Z,22.60
2022-09-02T11:58:52.036Z,22.59
2022-09-02T11:59:52.020Z,22.61
2022-09-02T12:00:52.003Z,22.63
2022-09-02T12:01:51.994Z,22.61
2022-09-02T12:02:51.993Z,22.69
2022-09-02T12:04:39.784Z,22.75
2022-09-02T12:05:00.244Z,22.78
2022-09-02T12:05:53.054Z,22.82
2022-09-02T12:06:51.991Z,22.81
2022-09-02T12:07:51.977Z,22.82
2022-09-02T12:08:51.960Z,22.85
2022-09-02T12:09:51.883Z,22.88
2022-09-02T12:10:51.896Z,22.89
2022-09-02T12:11:51.937Z,22.92
2022-09-02T12:12:52.098Z,22.96
2022-09-02T12:13:51.851Z,22.99
2022-09-02T12:14:51.898Z,22.97
2022-09-02T12:15:51.868Z,22.97
2022-09-02T12:16:51.800Z,22.99
2022-09-02T12:17:51.854Z,22.97
2022-09-02T12:18:51.772Z,23.03
2022-09-02T12:19:51.761Z,23.04
2022-09-02T12:20:51.744Z,23.10
2022-09-02T12:21:51.751Z,23.12
2022-09-02T12:22:51.809Z,23.14
2022-09-02T12:23:51.714Z,23.19
2022-09-02T12:24:51.713Z,23.22
2022-09-02T12:25:51.739Z,23.29
2022-09-02T12:26:51.738Z,23.37
2022-09-02T12:27:51.669Z,23.41
2022-09-02T12:28:51.659Z,23.44
2022-09-02T12:29:52.207Z,23.47
2022-09-02T12:30:51.638Z,23.48
2022-09-02T12:31:51.651Z,23.50
2022-09-02T12:32:51.590Z,23.55
2022-09-02T12:33:51.599Z,23.60
2022-09-02T12:34:51.587Z,23.63
2022-09-02T12:35:51.569Z,23.67
2022-09-02T12:36:51.572Z,23.77
2022-09-02T12:37:51.538Z,23.84
2022-09-02T12:38:51.539Z,23.92
2022-09-02T12:39:51.497Z,23.97
2022-09-02T12:40:51.537Z,24.02
2022-09-02T12:41:51.544Z,24.08
2022-09-02T12:42:51.531Z,24.11
2022-09-02T12:43:51.473Z,24.14
2022-09-02T12:44:51.428Z,24.19
2022-09-02T12:45:51.441Z,24.27
2022-09-02T12:46:51.543Z,24.33
2022-09-02T12:47:51.468Z,24.34
2022-09-02T12:48:51.383Z,24.40
2022-09-02T12:49:51.394Z,24.45
2022-09-02T12:50:51.376Z,24.54
2022-09-02T12:51:51.374Z,24.55
2022-09-02T12:52:51.375Z,24.54
2022-09-02T12:53:51.345Z,24.51
2022-09-02T12:54:51.315Z,24.56
2022-09-02T12:55:51.345Z,24.61
2022-09-02T12:56:51.284Z,24.67
2022-09-02T12:57:51.347Z,24.77
2022-09-02T12:58:51.255Z,24.86
2022-09-02T12:59:51.252Z,24.97
2022-09-02T13:00:51.318Z,25.08